Daffan, Texas
Current Conditions -  °F | °C
As of 7:15 AM on Thursday 27 Nov 2014 (Local Time) from KEDC Reporting Station
Clear Clear  
Wind Chill: 37°   Ceiling: Unl
Heat Index: 43°   Visibility: 10mi
Dew Point: 32°   Wind: 12mph
Humidity: 66%   Direction: 20°NNE
Pressure: 30.49"   Gusts: NA
Location:  30.352°N, 97.5205°W
Report Text: KEDC 271315Z AUTO 02010KT 10SM CLR 06/00 A3049 RMK AO2
Loading
Personal Weather Stations






























Interactive Weather Map New forecast layout! Learn more

10-Day Weather Forecast

Advertisements
Track Severe Weather on mobile